Time,TemperatureF,DewpointF,PressureIn,WindDirection,WindDirectionDegrees,WindSpeedMPH,WindSpeedGustMPH,Humidity,HourlyPrecipIn,Conditions,Clouds,dailyrainin,SoftwareType,DateUTC
2013-04-08 00:10:00,56.9,54.0,29.94,WNW,300,0.0,4.0,89,0.00,,,0.00,weatherlink.com 1.10,2013-04-08 04:10:00,
2013-04-08 00:25:00,56.3,53.0,29.94,NE,56,1.0,3.0,89,0.00,,,0.00,weatherlink.com 1.10,2013-04-08 04:25:00,
2013-04-08 00:40:00,55.8,53.0,29.94,NE,42,0.0,6.0,91,0.00,,,0.00,weatherlink.com 1.10,2013-04-08 04:40:00,
2013-04-08 00:55:00,55.6,53.0,29.93,NNE,19,2.0,5.0,91,0.00,,,0.00,weatherlink.com 1.10,2013-04-08 04:55:00,
2013-04-08 01:10:00,55.3,53.0,29.94,NNE,16,3.0,4.0,93,0.00,,,0.00,weatherlink.com 1.10,2013-04-08 05:10:00,
2013-04-08 01:25:00,55.3,53.0,29.94,North,5,2.0,5.0,93,0.00,,,0.00,weatherlink.com 1.10,2013-04-08 05:25:00,
2013-04-08 01:40:00,55.2,53.0,29.93,North,5,0.0,0.0,92,0.00,,,0.00,weatherlink.com 1.10,2013-04-08 05:40:00,
2013-04-08 01:55:00,54.9,53.0,29.93,North,5,0.0,2.0,92,0.00,,,0.00,weatherlink.com 1.10,2013-04-08 05:55:00,
2013-04-08 02:10:00,54.4,52.0,29.93,North,5,0.0,0.0,91,0.00,,,0.00,weatherlink.com 1.10,2013-04-08 06:10:00,
2013-04-08 02:25:00,54.0,52.0,29.92,North,5,0.0,1.0,92,0.00,,,0.00,weatherlink.com 1.10,2013-04-08 06:25:00,
2013-04-08 02:40:00,54.0,52.0,29.91,North,5,0.0,1.0,93,0.00,,,0.00,weatherlink.com 1.10,2013-04-08 06:40:00,
2013-04-08 02:55:00,54.0,52.0,29.91,North,5,0.0,0.0,93,0.00,,,0.00,weatherlink.com 1.10,2013-04-08 06:55:00,
2013-04-08 03:10:00,53.4,51.0,29.91,North,5,0.0,0.0,91,0.00,,,0.00,weatherlink.com 1.10,2013-04-08 07:10:00,
2013-04-08 03:25:00,53.1,51.0,29.90,North,5,0.0,0.0,93,0.00,,,0.00,weatherlink.com 1.10,2013-04-08 07:25:00,
2013-04-08 03:40:00,52.9,51.0,29.89,North,5,0.0,0.0,93,0.00,,,0.00,weatherlink.com 1.10,2013-04-08 07:40:00,
2013-04-08 03:55:00,52.8,51.0,29.89,North,5,0.0,0.0,93,0.00,,,0.00,weatherlink.com 1.10,2013-04-08 07:55:00,
2013-04-08 04:10:00,52.7,51.0,29.89,North,5,0.0,0.0,93,0.00,,,0.00,weatherlink.com 1.10,2013-04-08 08:10:00,
2013-04-08 04:25:00,52.7,51.0,29.88,North,5,0.0,0.0,94,0.00,,,0.00,weatherlink.com 1.10,2013-04-08 08:25:00,
2013-04-08 04:40:00,52.9,51.0,29.89,North,5,0.0,0.0,92,0.00,,,0.00,weatherlink.com 1.10,2013-04-08 08:40:00,
2013-04-08 04:55:00,52.8,51.0,29.88,North,5,0.0,0.0,92,0.00,,,0.00,weatherlink.com 1.10,2013-04-08 08:55:00,
2013-04-08 05:10:00,55.0,51.0,29.88,South,184,3.0,4.0,85,0.00,,,0.00,weatherlink.com 1.10,2013-04-08 09:10:00,
2013-04-08 05:25:00,56.6,50.0,29.87,SSE,167,1.0,4.0,79,0.00,,,0.00,weatherlink.com 1.10,2013-04-08 09:25:00,
2013-04-08 05:40:00,57.8,50.0,29.87,South,170,2.0,4.0,75,0.00,,,0.00,weatherlink.com 1.10,2013-04-08 09:40:00,
2013-04-08 05:55:00,58.2,50.0,29.87,South,169,2.0,5.0,73,0.00,,,0.00,weatherlink.com 1.10,2013-04-08 09:55:00,
2013-04-08 06:10:00,58.3,50.0,29.87,SSE,153,2.0,4.0,73,0.00,,,0.00,weatherlink.com 1.10,2013-04-08 10:10:00,
2013-04-08 06:25:00,58.5,49.0,29.87,SSE,156,2.0,5.0,72,0.00,,,0.00,weatherlink.com 1.10,2013-04-08 10:25:00,
2013-04-08 06:40:00,58.5,49.0,29.87,South,190,3.0,7.0,72,0.00,,,0.00,weatherlink.com 1.10,2013-04-08 10:40:00,
2013-04-08 06:55:00,58.9,49.0,29.87,South,179,4.0,7.0,70,0.00,,,0.00,weatherlink.com 1.10,2013-04-08 10:55:00,
2013-04-08 07:10:00,59.1,49.0,29.87,South,180,2.0,8.0,70,0.00,,,0.00,weatherlink.com 1.10,2013-04-08 11:10:00,
2013-04-08 07:25:00,59.3,50.0,29.88,SE,138,5.0,9.0,70,0.00,,,0.00,weatherlink.com 1.10,2013-04-08 11:25:00,
2013-04-08 07:40:00,59.4,49.0,29.89,SSW,192,3.0,7.0,69,0.00,,,0.00,weatherlink.com 1.10,2013-04-08 11:40:00,
2013-04-08 07:55:00,59.7,49.0,29.89,South,173,4.0,10.0,69,0.00,,,0.00,weatherlink.com 1.10,2013-04-08 11:55:00,
2013-04-08 08:10:00,59.9,50.0,29.89,SSE,158,7.0,10.0,69,0.00,,,0.00,weatherlink.com 1.10,2013-04-08 12:10:00,
2013-04-08 08:25:00,60.1,49.0,29.89,South,190,6.0,10.0,68,0.00,,,0.00,weatherlink.com 1.10,2013-04-08 12:25:00,
2013-04-08 08:40:00,60.7,50.0,29.89,SE,145,6.0,9.0,67,0.00,,,0.00,weatherlink.com 1.10,2013-04-08 12:40:00,
2013-04-08 08:56:00,60.8,50.0,29.88,South,180,3.0,12.0,67,0.00,,,0.00,weatherlink.com 1.10,2013-04-08 12:56:00,
2013-04-08 09:11:00,61.3,51.0,29.88,South,181,4.0,12.0,68,0.00,,,0.00,weatherlink.com 1.10,2013-04-08 13:11:00,
2013-04-08 09:26:00,62.0,51.0,29.87,SSE,157,5.0,12.0,67,0.00,,,0.00,weatherlink.com 1.10,2013-04-08 13:26:00,
2013-04-08 09:41:00,62.3,51.0,29.87,SE,136,5.0,11.0,66,0.00,,,0.00,weatherlink.com 1.10,2013-04-08 13:41:00,
2013-04-08 09:56:00,62.7,52.0,29.86,South,172,4.0,10.0,67,0.00,,,0.00,weatherlink.com 1.10,2013-04-08 13:56:00,
2013-04-08 10:11:00,63.3,52.0,29.86,South,169,5.0,12.0,66,0.00,,,0.00,weatherlink.com 1.10,2013-04-08 14:11:00,
2013-04-08 10:26:00,63.3,52.0,29.86,South,186,3.0,13.0,66,0.00,,,0.00,weatherlink.com 1.10,2013-04-08 14:26:00,
2013-04-08 11:41:00,67.4,56.0,29.88,SSW,201,7.0,13.0,66,0.00,,,0.00,weatherlink.com 1.10,2013-04-08 15:41:00,
2013-04-08 11:56:00,67.8,56.0,29.89,SSW,212,6.0,16.0,66,0.00,,,0.00,weatherlink.com 1.10,2013-04-08 15:56:00,
2013-04-08 12:11:00,68.4,56.0,29.89,SW,224,10.0,20.0,64,0.00,,,0.00,weatherlink.com 1.10,2013-04-08 16:11:00,
2013-04-08 12:26:00,68.5,57.0,29.89,South,181,6.0,13.0,66,0.00,,,0.00,weatherlink.com 1.10,2013-04-08 16:26:00,
2013-04-08 12:41:00,69.2,56.0,29.89,South,189,9.0,14.0,64,0.00,,,0.00,weatherlink.com 1.10,2013-04-08 16:41:00,
2013-04-08 12:56:00,70.4,58.0,29.89,SSW,192,6.0,15.0,64,0.00,,,0.00,weatherlink.com 1.10,2013-04-08 16:56:00,
2013-04-08 13:11:00,70.4,57.0,29.88,SSW,201,6.0,23.0,62,0.00,,,0.00,weatherlink.com 1.10,2013-04-08 17:11:00,
2013-04-08 13:41:00,70.6,56.0,29.88,South,187,9.0,14.0,61,0.00,,,0.00,weatherlink.com 1.10,2013-04-08 17:41:00,
2013-04-08 13:56:00,70.6,57.0,29.87,South,175,8.0,16.0,62,0.00,,,0.00,weatherlink.com 1.10,2013-04-08 17:56:00,
2013-04-08 14:11:00,71.0,57.0,29.87,South,187,7.0,16.0,61,0.00,,,0.00,weatherlink.com 1.10,2013-04-08 18:11:00,
2013-04-08 14:26:00,71.2,56.0,29.87,SSE,165,9.0,17.0,60,0.00,,,0.00,weatherlink.com 1.10,2013-04-08 18:26:00,
2013-04-08 14:41:00,71.3,56.0,29.86,SSW,207,7.0,19.0,58,0.00,,,0.00,weatherlink.com 1.10,2013-04-08 18:41:00,
2013-04-08 14:56:00,70.8,55.0,29.87,SSW,192,9.0,15.0,58,0.00,,,0.00,weatherlink.com 1.10,2013-04-08 18:56:00,
2013-04-08 15:11:00,70.2,55.0,29.87,SSW,202,7.0,17.0,59,0.00,,,0.00,weatherlink.com 1.10,2013-04-08 19:11:00,
2013-04-08 15:26:00,69.7,56.0,29.86,SSW,203,16.0,17.0,62,0.00,,,0.00,weatherlink.com 1.10,2013-04-08 19:26:00,
2013-04-08 15:41:00,70.5,56.0,29.85,SW,216,7.0,17.0,61,0.00,,,0.00,weatherlink.com 1.10,2013-04-08 19:41:00,
2013-04-08 15:56:00,72.4,57.0,29.84,SSE,152,4.0,12.0,59,0.00,,,0.00,weatherlink.com 1.10,2013-04-08 19:56:00,
2013-04-08 16:11:00,71.3,56.0,29.86,SSW,198,5.0,15.0,58,0.00,,,0.00,weatherlink.com 1.10,2013-04-08 20:11:00,
2013-04-08 16:42:00,73.0,55.0,29.85,SSW,209,7.0,16.0,54,0.00,,,0.00,weatherlink.com 1.10,2013-04-08 20:42:00,
2013-04-08 17:26:00,73.4,56.0,29.85,South,188,9.0,13.0,55,0.00,,,0.00,weatherlink.com 1.10,2013-04-08 21:26:00,
2013-04-08 17:41:00,74.2,56.0,29.86,South,174,13.0,17.0,54,0.00,,,0.00,weatherlink.com 1.10,2013-04-08 21:41:00,
2013-04-08 17:57:00,73.5,57.0,29.86,South,183,12.0,19.0,56,0.00,,,0.00,weatherlink.com 1.10,2013-04-08 21:57:00,
2013-04-08 18:11:00,73.0,55.0,29.86,SSW,201,7.0,17.0,54,0.00,,,0.00,weatherlink.com 1.10,2013-04-08 22:11:00,
2013-04-08 18:27:00,72.3,56.0,29.87,SSW,193,11.0,19.0,57,0.00,,,0.00,weatherlink.com 1.10,2013-04-08 22:27:00,
2013-04-08 18:41:00,72.4,56.0,29.87,SSW,193,5.0,10.0,57,0.00,,,0.00,weatherlink.com 1.10,2013-04-08 22:41:00,
2013-04-08 18:57:00,71.9,55.0,29.87,SW,224,4.0,14.0,56,0.00,,,0.00,weatherlink.com 1.10,2013-04-08 22:57:00,
2013-04-08 19:12:00,71.5,56.0,29.87,South,178,5.0,14.0,58,0.00,,,0.00,weatherlink.com 1.10,2013-04-08 23:12:00,
2013-04-08 19:27:00,71.3,56.0,29.88,South,173,3.0,10.0,59,0.00,,,0.00,weatherlink.com 1.10,2013-04-08 23:27:00,
2013-04-08 19:42:00,70.8,56.0,29.89,SSW,198,7.0,9.0,59,0.00,,,0.00,weatherlink.com 1.10,2013-04-08 23:42:00,
2013-04-08 19:57:00,70.3,56.0,29.89,South,188,3.0,8.0,60,0.00,,,0.00,weatherlink.com 1.10,2013-04-08 23:57:00,
2013-04-08 20:12:00,70.0,55.0,29.88,South,178,3.0,9.0,60,0.00,,,0.00,weatherlink.com 1.10,2013-04-09 00:12:00,
2013-04-08 20:27:00,69.8,56.0,29.89,SSW,194,2.0,4.0,61,0.00,,,0.00,weatherlink.com 1.10,2013-04-09 00:27:00,
2013-04-08 20:42:00,69.2,55.0,29.90,SSW,209,2.0,3.0,62,0.00,,,0.00,weatherlink.com 1.10,2013-04-09 00:42:00,
2013-04-08 21:12:00,67.7,55.0,29.91,SSW,205,0.0,1.0,64,0.00,,,0.00,weatherlink.com 1.10,2013-04-09 01:12:00,
2013-04-08 21:27:00,66.3,55.0,29.92,SSW,205,0.0,0.0,68,0.00,,,0.00,weatherlink.com 1.10,2013-04-09 01:27:00,
2013-04-08 21:42:00,65.2,55.0,29.92,SSW,205,0.0,0.0,70,0.00,,,0.00,weatherlink.com 1.10,2013-04-09 01:42:00,
2013-04-08 21:57:00,64.2,55.0,29.92,SSW,205,0.0,1.0,72,0.00,,,0.00,weatherlink.com 1.10,2013-04-09 01:57:00,
2013-04-08 22:12:00,63.1,54.0,29.93,SSW,205,0.0,0.0,73,0.00,,,0.00,weatherlink.com 1.10,2013-04-09 02:12:00,
2013-04-08 22:27:00,62.0,54.0,29.93,SSW,205,0.0,0.0,75,0.00,,,0.00,weatherlink.com 1.10,2013-04-09 02:27:00,
2013-04-08 22:42:00,60.7,53.0,29.93,SSW,205,0.0,0.0,77,0.00,,,0.00,weatherlink.com 1.10,2013-04-09 02:42:00,
2013-04-08 22:57:00,59.7,53.0,29.93,SSW,205,0.0,0.0,79,0.00,,,0.00,weatherlink.com 1.10,2013-04-09 02:57:00,
2013-04-08 23:12:00,58.7,53.0,29.93,SSW,205,0.0,0.0,80,0.00,,,0.00,weatherlink.com 1.10,2013-04-09 03:12:00,
2013-04-08 23:27:00,57.9,52.0,29.94,SSW,205,0.0,1.0,82,0.00,,,0.00,weatherlink.com 1.10,2013-04-09 03:27:00,
2013-04-08 23:42:00,57.4,52.0,29.94,SSW,205,0.0,0.0,83,0.00,,,0.00,weatherlink.com 1.10,2013-04-09 03:42:00,
2013-04-08 23:57:00,56.7,52.0,29.94,SSW,205,0.0,0.0,84,0.00,,,0.00,weatherlink.com 1.10,2013-04-09 03:57:00,